Time;durP1;ratioP1;P1;durP2;ratioP2;P2;SDS_P1;SDS_P2;PMS_P1;PMS_P2;Temp;Humidity;BMP_temperature;BMP_pressure;BME280_temperature;BME280_humidity;BME280_pressure;Samples;Min_cycle;Max_cycle;Signal;HPM_P1;HPM_P2
2022/06/04 00:00:09;;;;;;;;;;;22.20;40.10;;;;;;21257284;27;19966;-65
2022/06/04 00:20:35;;;;;;;;;;;22.20;40.40;;;;;;21255485;27;19976;-70
2022/06/04 00:30:37;;;;;;;;;;;22.00;40.60;;;;;;21254703;27;19984;-67
2022/06/04 00:40:49;;;;;;;;;;;21.90;40.70;;;;;;21254604;27;19932;-69
2022/06/04 00:50:51;;;;;;;;;;;21.80;41.00;;;;;;21234366;27;20014;-69
2022/06/04 01:01:00;;;;;;;;;;;21.90;40.90;;;;;;21252098;27;19924;-63
2022/06/04 01:11:01;;;;;;;;;;;21.80;41.30;;;;;;21251004;27;19924;-66
2022/06/04 01:21:16;;;;;;;;;;;21.70;41.70;;;;;;21250407;27;19955;-63
2022/06/04 01:31:21;;;;;;;;;;;21.60;42.50;;;;;;21250186;27;19930;-63
2022/06/04 01:41:35;;;;;;;;;;;21.50;43.30;;;;;;21249527;27;19931;-64
2022/06/04 01:51:37;;;;;;;;;;;21.20;43.70;;;;;;21248964;27;20349;-66
2022/06/04 02:01:45;;;;;;;;;;;21.10;44.30;;;;;;21249656;28;19924;-66
2022/06/04 02:11:58;;;;;;;;;;;20.90;44.80;;;;;;21249272;28;19924;-67
2022/06/04 02:22:09;;;;;;;;;;;20.70;45.00;;;;;;21247873;28;20311;-70
2022/06/04 02:32:18;;;;;;;;;;;20.90;44.90;;;;;;21247768;28;19968;-70
2022/06/04 02:42:31;;;;;;;;;;;20.60;45.70;;;;;;21247069;28;19966;-68
2022/06/04 02:52:35;;;;;;;;;;;20.40;46.10;;;;;;21246603;28;20298;-68
2022/06/04 03:02:38;;;;;;;;;;;20.20;46.50;;;;;;21260609;27;19923;-67
2022/06/04 03:12:40;;;;;;;;;;;19.70;46.80;;;;;;21260907;27;19924;-68
2022/06/04 03:22:44;;;;;;;;;;;19.40;48.00;;;;;;21259541;27;19923;-68
2022/06/04 03:32:48;;;;;;;;;;;19.30;47.80;;;;;;21259306;27;19923;-69
2022/06/04 03:42:54;;;;;;;;;;;;;;;;;;21257986;27;19923;-68
2022/06/04 03:52:57;;;;;;;;;;;;;;;;;;21257657;27;19924;-68
2022/06/04 04:03:00;;;;;;;;;;;;;;;;;;21257645;27;19947;-68
2022/06/04 04:13:04;;;;;;;;;;;;;;;;;;21248724;27;19965;-67
2022/06/04 04:23:06;;;;;;;;;;;;;;;;;;21253785;27;19930;-69
2022/06/04 04:33:10;;;;;;;;;;;;;;;;;;21255438;27;19961;-60
2022/06/04 04:43:13;;;;;;;;;;;;;;;;;;21253325;27;19923;-59
2022/06/04 04:53:15;;;;;;;;;;;19.40;47.00;;;;;;21253494;27;20010;-67
2022/06/04 05:03:18;;;;;;;;;;;;;;;;;;21233261;27;19968;-60
2022/06/04 05:13:19;;;;;;;;;;;19.40;47.20;;;;;;21251344;27;19928;-69
2022/06/04 05:23:22;;;;;;;;;;;19.00;48.20;;;;;;21250183;27;19962;-70
2022/06/04 05:33:23;;;;;;;;;;;18.40;49.60;;;;;;21249419;27;19938;-69
2022/06/04 05:43:26;;;;;;;;;;;18.30;49.80;;;;;;21249402;27;20370;-68
2022/06/04 05:53:28;;;;;;;;;;;18.80;49.20;;;;;;21249556;27;20014;-68
2022/06/04 06:03:30;;;;;;;;;;;18.70;49.30;;;;;;21248638;27;19950;-69
2022/06/04 06:13:32;;;;;;;;;;;18.90;48.60;;;;;;21247952;28;19923;-69
2022/06/04 06:23:34;;;;;;;;;;;19.10;48.20;;;;;;21247164;28;19935;-69
2022/06/04 06:33:36;;;;;;;;;;;19.30;47.70;;;;;;21256269;27;20326;-68
2022/06/04 06:53:40;;;;;;;;;;;19.90;46.70;;;;;;21261990;27;19973;-68
2022/06/04 07:03:42;;;;;;;;;;;21.30;44.30;;;;;;21260763;27;19934;-62
2022/06/04 07:13:43;;;;;;;;;;;22.10;45.80;;;;;;21261538;27;19923;-69
2022/06/04 07:23:45;;;;;;;;;;;22.60;44.50;;;;;;21260248;27;20403;-67
2022/06/04 07:33:52;;;;;;;;;;;;;;;;;;21259162;27;19927;-66
2022/06/04 07:43:54;;;;;;;;;;;23.50;42.30;;;;;;21256607;27;19934;-65
2022/06/04 07:53:55;;;;;;;;;;;23.70;41.90;;;;;;21257453;27;20461;-69
2022/06/04 08:03:57;;;;;;;;;;;;;;;;;;21257121;27;20006;-71
2022/06/04 08:14:03;;;;;;;;;;;25.00;40.20;;;;;;21255662;27;19927;-68
2022/06/04 08:24:04;;;;;;;;;;;25.30;39.50;;;;;;21254153;27;19927;-60
2022/06/04 08:34:06;;;;;;;;;;;25.10;40.10;;;;;;21254576;27;19923;-68
2022/06/04 08:44:22;;;;;;;;;;;25.30;40.00;;;;;;21253105;27;19924;-60
2022/06/04 09:04:53;;;;;;;;;;;25.30;40.60;;;;;;21255176;27;19923;-64
2022/06/04 09:14:57;;;;;;;;;;;25.90;40.00;;;;;;21233243;27;19998;-70
2022/06/04 09:24:59;;;;;;;;;;;26.00;39.60;;;;;;21249771;27;20301;-71
2022/06/04 09:35:00;;;;;;;;;;;26.10;39.00;;;;;;21250419;27;20003;-69
2022/06/04 09:45:04;;;;;;;;;;;;;;;;;;21248622;27;20363;-71
2022/06/04 09:55:20;;;;;;;;;;;26.40;38.10;;;;;;21251982;27;19924;-62
2022/06/04 10:05:24;;;;;;;;;;;26.60;38.10;;;;;;21251170;27;19970;-61
2022/06/04 10:15:30;;;;;;;;;;;26.90;37.70;;;;;;21263974;27;19972;-62
2022/06/04 10:25:52;;;;;;;;;;;26.90;37.40;;;;;;21263520;27;20424;-72
2022/06/04 10:36:03;;;;;;;;;;;26.90;37.30;;;;;;21263345;27;20038;-62
2022/06/04 10:46:15;;;;;;;;;;;27.10;37.00;;;;;;21262805;27;20014;-64
2022/06/04 10:56:18;;;;;;;;;;;27.20;36.30;;;;;;21262134;27;19923;-61
2022/06/04 11:06:31;;;;;;;;;;;26.70;36.20;;;;;;21260365;27;20433;-65
2022/06/04 11:16:34;;;;;;;;;;;26.80;36.50;;;;;;21259375;27;19923;-61
2022/06/04 11:26:57;;;;;;;;;;;26.60;36.30;;;;;;21259981;27;19928;-64
2022/06/04 11:37:01;;;;;;;;;;;27.10;35.30;;;;;;21241267;27;20057;-72
2022/06/04 11:47:15;;;;;;;;;;;27.00;35.00;;;;;;21258671;27;19924;-64
2022/06/04 11:57:23;;;;;;;;;;;27.20;33.90;;;;;;21257065;27;20335;-62
2022/06/04 12:07:40;;;;;;;;;;;27.50;32.80;;;;;;21256675;27;20263;-75
2022/06/04 12:17:44;;;;;;;;;;;;;;;;;;21255257;27;19978;-71
2022/06/04 12:27:56;;;;;;;;;;;27.90;31.10;;;;;;21236534;27;19982;-63
2022/06/04 12:37:59;;;;;;;;;;;27.60;31.60;;;;;;21271767;27;19955;-62
2022/06/04 12:48:00;;;;;;;;;;;27.30;32.50;;;;;;21283907;27;20018;-73
2022/06/04 12:58:20;;;;;;;;;;;27.70;31.70;;;;;;21253247;27;20336;-76
2022/06/04 13:08:23;;;;;;;;;;;27.60;32.10;;;;;;21252519;27;19923;-60
2022/06/04 13:18:28;;;;;;;;;;;27.80;31.60;;;;;;21269890;27;19915;-65
2022/06/04 13:28:38;;;;;;;;;;;27.70;31.90;;;;;;21269506;27;19976;-62
2022/06/04 13:38:41;;;;;;;;;;;27.10;32.20;;;;;;21249928;27;19976;-75
2022/06/04 13:48:57;;;;;;;;;;;27.50;32.10;;;;;;21249479;27;19981;-74
2022/06/04 13:58:59;;;;;;;;;;;27.80;31.20;;;;;;21249577;27;19930;-75
2022/06/04 14:09:02;;;;;;;;;;;;;;;;;;21248330;28;19924;-65
2022/06/04 14:19:23;;;;;;;;;;;28.30;30.40;;;;;;21246266;28;19949;-67
2022/06/04 14:29:27;;;;;;;;;;;28.30;30.40;;;;;;21246832;28;19924;-68
2022/06/04 14:39:31;;;;;;;;;;;28.20;30.70;;;;;;21247002;28;20390;-76
2022/06/04 14:49:51;;;;;;;;;;;28.40;29.70;;;;;;21247293;27;20014;-67
2022/06/04 14:59:54;;;;;;;;;;;28.30;29.70;;;;;;21262475;27;19923;-63
2022/06/04 15:10:05;;;;;;;;;;;28.20;28.70;;;;;;21262282;27;19923;-77
2022/06/04 15:20:16;;;;;;;;;;;28.20;29.30;;;;;;21260673;27;19927;-71
2022/06/04 15:41:09;;;;;;;;;;;28.20;28.30;;;;;;21260678;27;20426;-68
2022/06/04 16:01:53;;;;;;;;;;;28.10;29.80;;;;;;21264171;27;19977;-77
2022/06/04 16:12:13;;;;;;;;;;;27.90;30.30;;;;;;21272762;27;19923;-66
2022/06/04 16:22:19;;;;;;;;;;;27.90;30.70;;;;;;21265987;27;20345;-69
2022/06/04 16:32:21;;;;;;;;;;;28.00;30.30;;;;;;21271718;27;19927;-64
2022/06/04 16:42:22;;;;;;;;;;;;;;;;;;21260569;27;19931;-76
2022/06/04 16:52:24;;;;;;;;;;;27.60;30.10;;;;;;21260446;27;20014;-68
2022/06/04 17:02:33;;;;;;;;;;;27.60;29.90;;;;;;21253913;27;20359;-60
2022/06/04 17:12:48;;;;;;;;;;;27.30;29.70;;;;;;21254071;27;19923;-69
2022/06/04 17:22:55;;;;;;;;;;;27.20;30.40;;;;;;21251801;27;19927;-68
2022/06/04 17:33:16;;;;;;;;;;;27.00;31.00;;;;;;21205582;27;19924;-67
2022/06/04 17:43:17;;;;;;;;;;;27.60;30.20;;;;;;21230165;27;19981;-73
2022/06/04 17:53:19;;;;;;;;;;;26.60;31.50;;;;;;21205168;27;20347;-75
2022/06/04 18:03:21;;;;;;;;;;;26.30;32.30;;;;;;21192504;27;19928;-64
2022/06/04 18:13:23;;;;;;;;;;;26.20;32.00;;;;;;21174158;28;19923;-75
2022/06/04 18:23:24;;;;;;;;;;;26.10;32.70;;;;;;21163539;28;19967;-68
2022/06/04 18:33:26;;;;;;;;;;;26.10;32.90;;;;;;21180212;28;19924;-66
2022/06/04 19:04:08;;;;;;;;;;;25.20;34.10;;;;;;21176918;28;19984;-71
2022/06/04 19:14:10;;;;;;;;;;;25.10;34.40;;;;;;21188382;28;19934;-73
2022/06/04 19:34:33;;;;;;;;;;;24.60;35.30;;;;;;21201845;28;19959;-68
2022/06/04 19:44:35;;;;;;;;;;;24.30;35.70;;;;;;21177153;28;19977;-66
2022/06/04 20:04:56;;;;;;;;;;;23.80;35.70;;;;;;21173364;28;19923;-63
2022/06/04 20:14:58;;;;;;;;;;;23.60;35.90;;;;;;21173728;28;19975;-73
2022/06/04 20:24:59;;;;;;;;;;;23.50;36.00;;;;;;21169244;28;19924;-65
2022/06/04 20:35:01;;;;;;;;;;;23.30;36.10;;;;;;21169078;28;19924;-63
2022/06/04 20:45:03;;;;;;;;;;;23.20;36.10;;;;;;21168063;28;19946;-70
2022/06/04 20:55:05;;;;;;;;;;;23.10;36.20;;;;;;21165970;28;19924;-69
2022/06/04 21:05:06;;;;;;;;;;;23.10;36.50;;;;;;21166801;28;20287;-68
2022/06/04 21:15:08;;;;;;;;;;;22.90;36.60;;;;;;21166190;28;20299;-64
2022/06/04 21:25:10;;;;;;;;;;;22.90;36.60;;;;;;21167183;28;19931;-70
2022/06/04 21:45:34;;;;;;;;;;;22.70;37.00;;;;;;21164358;28;19928;-65
2022/06/04 21:55:37;;;;;;;;;;;22.50;37.20;;;;;;21162925;28;19931;-68
2022/06/04 22:05:39;;;;;;;;;;;22.40;37.40;;;;;;21161579;28;19924;-67
2022/06/04 22:15:41;;;;;;;;;;;22.20;37.80;;;;;;21177957;28;19982;-68
2022/06/04 22:25:42;;;;;;;;;;;22.30;38.00;;;;;;21161679;28;19923;-68
2022/06/04 22:35:44;;;;;;;;;;;22.20;38.30;;;;;;21162165;28;19923;-66
2022/06/04 22:45:46;;;;;;;;;;;22.20;38.60;;;;;;21160834;28;20030;-68
2022/06/04 22:55:47;;;;;;;;;;;22.10;38.80;;;;;;21160646;28;19931;-69
2022/06/04 23:05:49;;;;;;;;;;;22.00;39.10;;;;;;21160324;28;19953;-70
2022/06/04 23:26:13;;;;;;;;;;;21.50;40.00;;;;;;21174352;28;19974;-67
2022/06/04 23:36:14;;;;;;;;;;;21.80;39.70;;;;;;21173641;28;19935;-69
2022/06/04 23:46:16;;;;;;;;;;;21.30;40.50;;;;;;21173392;28;19924;-69
2022/06/04 23:56:18;;;;;;;;;;;21.20;41.60;;;;;;21172131;28;20368;-69
